Saint Louis, Missouri
Traffic Map
Current Weather Conditions
Saint Louis, Missouri
Overcast Moderate Fog
Overcast

Feels Like: 8°
Wind Chill: Ceiling: 300
Heat Index: Visibility: 0.5mi
Dew Point: Wind: 0mph
Humidity: 97% Direction: ° ()
Pressure: 29.87in Gusts: 0mph
Raw Report DataKCPS 220938Z AUTO 00000KT 1/2SM FG VV003 08/08 A2987 RMK AO2 T00830078 TSNO
Traffic Incident Summary
Active as of:
Severity:
Category:
InformationThere was an issue retrieving the traffic information for this location. Please try a different location or try again shortly.
Advertisements
Track Severe Weather on mobile